Shideler, Indiana
Current Conditions -  °F | °C
As of 6:53 PM on Saturday 25 Oct 2014 (Local Time) from KMIE Reporting Station
Clear Clear  
Wind Chill: 66°   Ceiling: Unl
Heat Index: 66°   Visibility: 10mi
Dew Point: 47°   Wind: 8mph
Humidity: 50%   Direction: 280°W
Pressure: 29.9"   Gusts: NA
Location:  40.3453°N, 85.3353°W
Report Text: KMIE 252253Z 28007KT 10SM CLR 19/08 A2990 RMK AO2 RAB32E41 SLP119 P0000 T01890083
Loading
Personal Weather Stations






























Interactive Weather Map
Tropical Storm Tracking
New forecast layout! Learn more

10-Day Weather Forecast

Advertisements
Track Severe Weather on mobile